TFM - Tactical Decision Aid
ID: Runway Winds: CIG/VIS Threshold:

KATL - Atlanta/Hartsfield I, GA, US

Updated at: 1233 UTC 24 Jan 2021
Latest TAF at: 1120 UTC 24 Jan 2021

TAF Board

Time1152Z 24/13Z 24/14Z 24/15Z 24/16Z 24/17Z 24/18Z 24/19Z 24/20Z 24/21Z 24/22Z 24/23Z 25/00Z 25/01Z>>
Type OBS PRVL PRVL PRVL PRVL PRVL PRVL PRVL PRVL PRVL PRVL PRVL PRVL PRVL
VIS 10 >6 >6 >6 >6 >6 >6 >6 >6 >6 >6 >6 >6 >6
CIG -- 80 80 150 150 150 150 150 150 150 35 35 35 20
Cover FEW BKN BKN BKN BKN BKN BKN BKN BKN BKN OVC OVC OVC OVC
FltCat VFR VFR VFR VFR VFR VFR VFR VFR VFR VFR VFR VFR VFR MVFR
WX -- -- -- -- -- -- -- -- -- -- -- -- -- VCSH
WDir 100 120 120 110 110 110 110 110 110 110 130 130 130 140
WSpd 8 6 6 8 8 8 8 8 8 8 7 7 7 7
WGst -- -- -- -- -- -- -- -- -- -- -- -- -- --

TDA Impact Legend

  None Marginal Slight Moderate High
Visibility (sm) >5 2.9≤X≤5 0.9≤X<2.9 <0.9
Ceiling (100 ft) >30 9.9≤X≤30 4.9≤X<9.9 <4.9
Wind Speed (kt) <15 15≤X<25 25≤X<30 ≥30
Wind Gust (kt) <15 15≤X<25 25≤X<35 ≥35
Weather No Wx Reported VCTS -TS,-FZRA TS,FZRA +TS,+FZRA
TAF
KATL 241120Z 2412/2518 12006KT P6SM BKN080 BKN250
  FM241500 11008KT P6SM BKN150
  FM242200 13007KT P6SM BKN035 OVC080
  FM250100 14007KT P6SM VCSH BKN020 OVC040
  FM250800 14005KT 6SM -RA BR OVC008
  FM251000 14005KT 4SM -RA BR OVC004
  FM251500 16007KT 1SM BR VCSH OVC004


METAR
KATL 241152Z 10008KT 10SM FEW090 FEW150 05/M02 A3023 RMK AO2 SLP238 T00501017 10094 20050 53006
KATL 241052Z 10009KT 10SM FEW090 FEW250 06/M01 A3020 RMK AO2 PRESFR SLP229 T00561011
KATL 240952Z 08007KT 10SM SCT090 06/M01 A3022 RMK AO2 SLP234 T00561006

Radar Display
Forecast Discussion